sensor_id;sensor_type;location;lat;lon;timestamp;P1;P2;P0
60058;PMS7003;45932;50.658;3.022;2022-08-14T00:00:45;13.00;10.00;8.00
60058;PMS7003;45932;50.658;3.022;2022-08-14T00:03:23;9.00;9.00;7.67
60058;PMS7003;45932;50.658;3.022;2022-08-14T00:05:51;11.67;11.67;10.00
60058;PMS7003;45932;50.658;3.022;2022-08-14T00:08:17;10.67;10.67;8.00
60058;PMS7003;45932;50.658;3.022;2022-08-14T00:10:43;12.33;12.33;9.33
60058;PMS7003;45932;50.658;3.022;2022-08-14T00:13:09;11.00;11.00;9.33
60058;PMS7003;45932;50.658;3.022;2022-08-14T00:15:38;15.00;13.33;11.00
60058;PMS7003;45932;50.658;3.022;2022-08-14T00:18:06;13.00;13.00;10.00
60058;PMS7003;45932;50.658;3.022;2022-08-14T00:20:34;11.67;11.67;10.00
60058;PMS7003;45932;50.658;3.022;2022-08-14T00:23:04;13.00;13.00;11.00
60058;PMS7003;45932;50.658;3.022;2022-08-14T00:25:31;11.67;11.67;9.33
60058;PMS7003;45932;50.658;3.022;2022-08-14T00:27:56;13.00;11.00;11.00
60058;PMS7003;45932;50.658;3.022;2022-08-14T00:30:21;15.00;10.33;9.00
60058;PMS7003;45932;50.658;3.022;2022-08-14T00:32:47;10.67;10.67;9.00
60058;PMS7003;45932;50.658;3.022;2022-08-14T00:35:12;10.33;10.33;8.33
60058;PMS7003;45932;50.658;3.022;2022-08-14T00:37:39;15.33;12.00;9.67
60058;PMS7003;45932;50.658;3.022;2022-08-14T00:40:06;11.67;11.33;9.33
60058;PMS7003;45932;50.658;3.022;2022-08-14T00:42:33;14.67;11.33;10.00
60058;PMS7003;45932;50.658;3.022;2022-08-14T00:44:59;11.67;10.67;9.33
60058;PMS7003;45932;50.658;3.022;2022-08-14T00:47:24;12.00;12.00;9.00
60058;PMS7003;45932;50.658;3.022;2022-08-14T00:49:53;13.00;12.33;10.33
60058;PMS7003;45932;50.658;3.022;2022-08-14T00:52:22;11.33;10.00;8.00
60058;PMS7003;45932;50.658;3.022;2022-08-14T00:54:49;10.33;10.33;9.00
60058;PMS7003;45932;50.658;3.022;2022-08-14T00:57:21;12.33;12.33;10.67
60058;PMS7003;45932;50.658;3.022;2022-08-14T00:59:51;13.00;11.33;10.00
60058;PMS7003;45932;50.658;3.022;2022-08-14T01:02:18;9.00;9.00;6.33
60058;PMS7003;45932;50.658;3.022;2022-08-14T01:04:50;12.67;11.67;10.00
60058;PMS7003;45932;50.658;3.022;2022-08-14T01:07:17;11.00;11.00;8.33
60058;PMS7003;45932;50.658;3.022;2022-08-14T01:09:48;12.33;10.33;8.33
60058;PMS7003;45932;50.658;3.022;2022-08-14T01:12:16;14.00;14.00;10.67
60058;PMS7003;45932;50.658;3.022;2022-08-14T01:14:43;13.00;13.00;10.67
60058;PMS7003;45932;50.658;3.022;2022-08-14T01:17:08;11.33;11.33;10.00
60058;PMS7003;45932;50.658;3.022;2022-08-14T01:19:34;9.33;9.33;7.33
60058;PMS7003;45932;50.658;3.022;2022-08-14T01:22:18;11.33;10.00;8.67
60058;PMS7003;45932;50.658;3.022;2022-08-14T01:24:44;10.00;10.00;9.00
60058;PMS7003;45932;50.658;3.022;2022-08-14T01:27:16;10.00;10.00;9.00
60058;PMS7003;45932;50.658;3.022;2022-08-14T01:29:44;10.33;9.00;8.00
60058;PMS7003;45932;50.658;3.022;2022-08-14T01:32:11;13.33;11.33;9.33
60058;PMS7003;45932;50.658;3.022;2022-08-14T01:34:37;10.33;10.33;8.33
60058;PMS7003;45932;50.658;3.022;2022-08-14T01:37:02;12.00;11.00;9.33
60058;PMS7003;45932;50.658;3.022;2022-08-14T01:39:28;12.67;11.67;8.00
60058;PMS7003;45932;50.658;3.022;2022-08-14T01:41:54;11.00;10.33;8.67
60058;PMS7003;45932;50.658;3.022;2022-08-14T01:44:22;11.67;11.00;8.33
60058;PMS7003;45932;50.658;3.022;2022-08-14T01:46:52;13.33;10.33;9.00
60058;PMS7003;45932;50.658;3.022;2022-08-14T01:49:18;12.00;10.00;7.00
60058;PMS7003;45932;50.658;3.022;2022-08-14T01:51:45;11.33;10.67;9.00
60058;PMS7003;45932;50.658;3.022;2022-08-14T01:54:13;12.00;12.00;9.00
60058;PMS7003;45932;50.658;3.022;2022-08-14T01:56:47;13.33;12.00;10.00
60058;PMS7003;45932;50.658;3.022;2022-08-14T02:01:57;11.33;11.00;9.33
60058;PMS7003;45932;50.658;3.022;2022-08-14T02:04:24;12.00;12.00;9.33
60058;PMS7003;45932;50.658;3.022;2022-08-14T02:06:55;7.00;6.33;6.00
60058;PMS7003;45932;50.658;3.022;2022-08-14T02:09:21;10.33;10.33;9.33
60058;PMS7003;45932;50.658;3.022;2022-08-14T02:11:46;15.67;13.00;10.67
60058;PMS7003;45932;50.658;3.022;2022-08-14T02:14:13;12.00;12.00;10.00
60058;PMS7003;45932;50.658;3.022;2022-08-14T02:16:41;11.33;9.67;6.67
60058;PMS7003;45932;50.658;3.022;2022-08-14T02:19:15;12.67;11.67;10.00
60058;PMS7003;45932;50.658;3.022;2022-08-14T02:21:43;12.00;12.00;10.00
60058;PMS7003;45932;50.658;3.022;2022-08-14T02:24:09;11.67;11.67;9.00
60058;PMS7003;45932;50.658;3.022;2022-08-14T02:26:37;11.33;11.33;8.67
60058;PMS7003;45932;50.658;3.022;2022-08-14T02:29:07;10.67;10.67;9.00
60058;PMS7003;45932;50.658;3.022;2022-08-14T02:31:36;10.33;10.33;8.67
60058;PMS7003;45932;50.658;3.022;2022-08-14T02:34:08;11.33;11.33;9.00
60058;PMS7003;45932;50.658;3.022;2022-08-14T02:36:42;8.67;8.67;7.00
60058;PMS7003;45932;50.658;3.022;2022-08-14T02:39:09;10.33;10.33;9.00
60058;PMS7003;45932;50.658;3.022;2022-08-14T02:41:35;10.00;10.00;8.00
60058;PMS7003;45932;50.658;3.022;2022-08-14T02:44:02;11.33;10.33;9.33
60058;PMS7003;45932;50.658;3.022;2022-08-14T02:46:30;10.00;10.00;9.00
60058;PMS7003;45932;50.658;3.022;2022-08-14T02:48:55;12.67;9.33;8.00
60058;PMS7003;45932;50.658;3.022;2022-08-14T02:51:21;14.33;10.33;9.67
60058;PMS7003;45932;50.658;3.022;2022-08-14T02:53:47;14.33;12.33;9.00
60058;PMS7003;45932;50.658;3.022;2022-08-14T02:56:13;9.00;9.00;8.00
60058;PMS7003;45932;50.658;3.022;2022-08-14T02:58:42;10.67;10.67;8.33
60058;PMS7003;45932;50.658;3.022;2022-08-14T03:01:11;12.00;11.33;10.00
60058;PMS7003;45932;50.658;3.022;2022-08-14T03:03:37;12.00;12.00;10.00
60058;PMS7003;45932;50.658;3.022;2022-08-14T03:06:03;10.00;9.67;8.00
60058;PMS7003;45932;50.658;3.022;2022-08-14T03:08:30;12.00;10.33;9.00
60058;PMS7003;45932;50.658;3.022;2022-08-14T03:10:57;11.33;10.33;8.67
60058;PMS7003;45932;50.658;3.022;2022-08-14T03:13:30;10.00;10.00;9.00
60058;PMS7003;45932;50.658;3.022;2022-08-14T03:15:56;11.00;11.00;9.67
60058;PMS7003;45932;50.658;3.022;2022-08-14T03:18:22;11.67;11.67;9.33
60058;PMS7003;45932;50.658;3.022;2022-08-14T03:20:49;12.67;12.67;10.33
60058;PMS7003;45932;50.658;3.022;2022-08-14T03:23:15;12.67;11.33;9.00
60058;PMS7003;45932;50.658;3.022;2022-08-14T03:25:42;11.00;10.00;8.00
60058;PMS7003;45932;50.658;3.022;2022-08-14T03:28:08;11.67;10.67;9.00
60058;PMS7003;45932;50.658;3.022;2022-08-14T03:30:36;14.00;13.00;9.67
60058;PMS7003;45932;50.658;3.022;2022-08-14T03:33:02;11.00;11.00;10.00
60058;PMS7003;45932;50.658;3.022;2022-08-14T03:35:29;11.00;10.67;9.67
60058;PMS7003;45932;50.658;3.022;2022-08-14T03:37:55;13.33;11.67;10.00
60058;PMS7003;45932;50.658;3.022;2022-08-14T03:40:28;11.33;11.33;9.00
60058;PMS7003;45932;50.658;3.022;2022-08-14T03:42:53;11.67;10.33;8.67
60058;PMS7003;45932;50.658;3.022;2022-08-14T03:45:19;10.67;10.67;8.00
60058;PMS7003;45932;50.658;3.022;2022-08-14T03:47:44;13.33;12.67;11.33
60058;PMS7003;45932;50.658;3.022;2022-08-14T03:50:10;8.00;7.67;7.00
60058;PMS7003;45932;50.658;3.022;2022-08-14T03:52:36;9.33;9.33;8.33
60058;PMS7003;45932;50.658;3.022;2022-08-14T03:55:03;14.00;12.33;9.67
60058;PMS7003;45932;50.658;3.022;2022-08-14T03:57:31;12.00;10.00;8.33
60058;PMS7003;45932;50.658;3.022;2022-08-14T04:00:00;13.67;12.00;9.67
60058;PMS7003;45932;50.658;3.022;2022-08-14T04:02:29;11.33;10.33;8.00
60058;PMS7003;45932;50.658;3.022;2022-08-14T04:04:55;12.33;10.67;9.33
60058;PMS7003;45932;50.658;3.022;2022-08-14T04:07:20;9.67;9.67;9.00
60058;PMS7003;45932;50.658;3.022;2022-08-14T04:09:46;12.00;12.00;10.33
60058;PMS7003;45932;50.658;3.022;2022-08-14T04:12:11;11.33;11.33;10.00
60058;PMS7003;45932;50.658;3.022;2022-08-14T04:14:37;13.67;12.67;10.33
60058;PMS7003;45932;50.658;3.022;2022-08-14T04:17:02;14.00;13.00;11.33
60058;PMS7003;45932;50.658;3.022;2022-08-14T04:19:28;14.00;13.33;10.33
60058;PMS7003;45932;50.658;3.022;2022-08-14T04:21:54;10.67;10.67;9.33
60058;PMS7003;45932;50.658;3.022;2022-08-14T04:24:19;12.33;12.33;10.00
60058;PMS7003;45932;50.658;3.022;2022-08-14T04:26:44;13.00;12.00;10.33
60058;PMS7003;45932;50.658;3.022;2022-08-14T04:29:11;12.33;12.33;9.00
60058;PMS7003;45932;50.658;3.022;2022-08-14T04:31:37;12.33;11.67;10.00
60058;PMS7003;45932;50.658;3.022;2022-08-14T04:34:03;13.00;13.00;10.33
60058;PMS7003;45932;50.658;3.022;2022-08-14T04:36:29;14.33;14.33;11.00
60058;PMS7003;45932;50.658;3.022;2022-08-14T04:38:55;13.33;13.33;10.00
60058;PMS7003;45932;50.658;3.022;2022-08-14T04:41:39;11.67;11.67;10.00
60058;PMS7003;45932;50.658;3.022;2022-08-14T04:44:23;11.67;11.67;10.00
60058;PMS7003;45932;50.658;3.022;2022-08-14T04:46:48;10.33;10.33;7.67
60058;PMS7003;45932;50.658;3.022;2022-08-14T04:49:32;14.00;14.00;10.67
60058;PMS7003;45932;50.658;3.022;2022-08-14T04:51:58;14.00;13.00;10.33
60058;PMS7003;45932;50.658;3.022;2022-08-14T04:54:24;14.67;12.67;9.33
60058;PMS7003;45932;50.658;3.022;2022-08-14T04:56:51;13.33;11.67;9.00
60058;PMS7003;45932;50.658;3.022;2022-08-14T04:59:17;15.00;13.33;10.33
60058;PMS7003;45932;50.658;3.022;2022-08-14T05:01:42;14.00;11.33;9.00
60058;PMS7003;45932;50.658;3.022;2022-08-14T05:04:09;12.33;12.33;10.00
60058;PMS7003;45932;50.658;3.022;2022-08-14T05:06:36;14.00;12.33;10.67
60058;PMS7003;45932;50.658;3.022;2022-08-14T05:09:02;15.33;13.33;11.00
60058;PMS7003;45932;50.658;3.022;2022-08-14T05:11:28;14.00;11.67;9.00
60058;PMS7003;45932;50.658;3.022;2022-08-14T05:13:57;14.33;12.67;10.00
60058;PMS7003;45932;50.658;3.022;2022-08-14T05:16:23;15.00;13.33;10.00
60058;PMS7003;45932;50.658;3.022;2022-08-14T05:18:55;13.00;13.00;10.67
60058;PMS7003;45932;50.658;3.022;2022-08-14T05:21:20;15.00;14.33;12.33
60058;PMS7003;45932;50.658;3.022;2022-08-14T05:23:46;11.67;11.00;9.00
60058;PMS7003;45932;50.658;3.022;2022-08-14T05:26:12;12.33;10.67;9.33
60058;PMS7003;45932;50.658;3.022;2022-08-14T05:28:40;12.33;12.33;9.67
60058;PMS7003;45932;50.658;3.022;2022-08-14T05:31:09;13.00;11.33;9.33
60058;PMS7003;45932;50.658;3.022;2022-08-14T05:33:37;11.67;11.67;9.33
60058;PMS7003;45932;50.658;3.022;2022-08-14T05:36:05;12.00;12.00;9.00
60058;PMS7003;45932;50.658;3.022;2022-08-14T05:38:33;14.00;14.00;11.33
60058;PMS7003;45932;50.658;3.022;2022-08-14T05:41:01;11.67;11.67;8.67
60058;PMS7003;45932;50.658;3.022;2022-08-14T05:43:32;15.00;12.00;9.67
60058;PMS7003;45932;50.658;3.022;2022-08-14T05:45:58;11.00;11.00;9.00
60058;PMS7003;45932;50.658;3.022;2022-08-14T05:48:24;11.67;11.33;9.67
60058;PMS7003;45932;50.658;3.022;2022-08-14T05:50:50;14.00;14.00;9.67
60058;PMS7003;45932;50.658;3.022;2022-08-14T05:53:18;12.67;12.67;8.67
60058;PMS7003;45932;50.658;3.022;2022-08-14T05:55:44;13.00;13.00;10.67
60058;PMS7003;45932;50.658;3.022;2022-08-14T05:58:10;14.67;12.00;10.33
60058;PMS7003;45932;50.658;3.022;2022-08-14T06:00:36;10.67;10.33;8.33
60058;PMS7003;45932;50.658;3.022;2022-08-14T06:03:04;14.67;13.33;10.67
60058;PMS7003;45932;50.658;3.022;2022-08-14T06:05:32;15.67;14.33;11.00
60058;PMS7003;45932;50.658;3.022;2022-08-14T06:07:57;12.33;12.33;10.33
60058;PMS7003;45932;50.658;3.022;2022-08-14T06:10:24;12.00;11.33;9.00
60058;PMS7003;45932;50.658;3.022;2022-08-14T06:12:51;12.67;12.67;11.00
60058;PMS7003;45932;50.658;3.022;2022-08-14T06:15:16;12.33;11.33;8.67
60058;PMS7003;45932;50.658;3.022;2022-08-14T06:17:45;10.33;10.33;9.33
60058;PMS7003;45932;50.658;3.022;2022-08-14T06:20:12;14.33;11.00;9.67
60058;PMS7003;45932;50.658;3.022;2022-08-14T06:22:41;12.00;12.00;10.00
60058;PMS7003;45932;50.658;3.022;2022-08-14T06:25:08;10.33;10.33;9.00
60058;PMS7003;45932;50.658;3.022;2022-08-14T06:27:35;11.00;11.00;8.67
60058;PMS7003;45932;50.658;3.022;2022-08-14T06:30:02;12.67;12.67;9.33
60058;PMS7003;45932;50.658;3.022;2022-08-14T06:32:29;12.67;12.67;11.00
60058;PMS7003;45932;50.658;3.022;2022-08-14T06:34:55;13.00;12.33;8.33
60058;PMS7003;45932;50.658;3.022;2022-08-14T06:37:20;9.00;9.00;7.33
60058;PMS7003;45932;50.658;3.022;2022-08-14T06:39:47;12.00;12.00;9.67
60058;PMS7003;45932;50.658;3.022;2022-08-14T06:42:12;13.00;12.33;9.33
60058;PMS7003;45932;50.658;3.022;2022-08-14T06:44:38;12.33;11.67;9.00
60058;PMS7003;45932;50.658;3.022;2022-08-14T06:47:04;12.67;12.67;9.67
60058;PMS7003;45932;50.658;3.022;2022-08-14T06:49:29;12.67;10.00;9.00
60058;PMS7003;45932;50.658;3.022;2022-08-14T06:51:55;8.33;8.33;7.33
60058;PMS7003;45932;50.658;3.022;2022-08-14T06:54:20;10.33;9.00;7.67
60058;PMS7003;45932;50.658;3.022;2022-08-14T06:56:45;11.00;10.00;9.33
60058;PMS7003;45932;50.658;3.022;2022-08-14T06:59:13;14.00;12.33;9.33
60058;PMS7003;45932;50.658;3.022;2022-08-14T07:01:39;9.67;9.33;7.00
60058;PMS7003;45932;50.658;3.022;2022-08-14T07:04:23;11.67;11.67;10.00
60058;PMS7003;45932;50.658;3.022;2022-08-14T07:07:07;11.67;11.67;9.33
60058;PMS7003;45932;50.658;3.022;2022-08-14T07:09:32;13.67;13.67;10.00
60058;PMS7003;45932;50.658;3.022;2022-08-14T07:11:58;13.67;12.33;8.67
60058;PMS7003;45932;50.658;3.022;2022-08-14T07:14:23;12.33;11.00;9.00
60058;PMS7003;45932;50.658;3.022;2022-08-14T07:16:49;11.67;11.67;9.33
60058;PMS7003;45932;50.658;3.022;2022-08-14T07:19:15;12.33;12.33;9.00
60058;PMS7003;45932;50.658;3.022;2022-08-14T07:21:42;13.67;12.00;9.33
60058;PMS7003;45932;50.658;3.022;2022-08-14T07:24:07;9.67;9.67;7.33
60058;PMS7003;45932;50.658;3.022;2022-08-14T07:26:32;9.50;9.00;6.50
60058;PMS7003;45932;50.658;3.022;2022-08-14T07:28:58;14.00;12.33;8.33
60058;PMS7003;45932;50.658;3.022;2022-08-14T07:31:23;12.00;9.00;8.00
60058;PMS7003;45932;50.658;3.022;2022-08-14T07:33:48;12.00;9.33;8.67
60058;PMS7003;45932;50.658;3.022;2022-08-14T07:36:14;11.33;9.33;8.00
60058;PMS7003;45932;50.658;3.022;2022-08-14T07:38:40;9.33;9.00;7.00
60058;PMS7003;45932;50.658;3.022;2022-08-14T07:41:06;12.67;10.67;7.67
60058;PMS7003;45932;50.658;3.022;2022-08-14T07:43:33;10.00;8.33;7.00
60058;PMS7003;45932;50.658;3.022;2022-08-14T07:45:58;9.67;9.67;8.00
60058;PMS7003;45932;50.658;3.022;2022-08-14T07:48:24;8.67;8.33;6.67
60058;PMS7003;45932;50.658;3.022;2022-08-14T07:50:49;7.00;6.67;6.00
60058;PMS7003;45932;50.658;3.022;2022-08-14T07:53:16;7.00;5.00;4.33
60058;PMS7003;45932;50.658;3.022;2022-08-14T07:55:44;7.00;6.00;5.00
60058;PMS7003;45932;50.658;3.022;2022-08-14T07:58:10;7.33;6.00;5.33
60058;PMS7003;45932;50.658;3.022;2022-08-14T08:00:37;7.00;7.00;5.00
60058;PMS7003;45932;50.658;3.022;2022-08-14T08:03:02;7.00;7.00;5.67
60058;PMS7003;45932;50.658;3.022;2022-08-14T08:05:34;9.00;8.33;6.33
60058;PMS7003;45932;50.658;3.022;2022-08-14T08:08:00;8.00;7.00;6.00
60058;PMS7003;45932;50.658;3.022;2022-08-14T08:10:27;9.67;8.00;6.00
60058;PMS7003;45932;50.658;3.022;2022-08-14T08:12:56;8.00;8.00;6.33
60058;PMS7003;45932;50.658;3.022;2022-08-14T08:15:24;5.67;5.67;5.00
60058;PMS7003;45932;50.658;3.022;2022-08-14T08:17:51;8.00;8.00;7.00
60058;PMS7003;45932;50.658;3.022;2022-08-14T08:20:17;7.00;7.00;6.00
60058;PMS7003;45932;50.658;3.022;2022-08-14T08:22:44;5.00;5.00;5.00
60058;PMS7003;45932;50.658;3.022;2022-08-14T08:25:10;6.33;6.33;5.00
60058;PMS7003;45932;50.658;3.022;2022-08-14T08:27:36;8.00;6.67;6.00
60058;PMS7003;45932;50.658;3.022;2022-08-14T08:30:11;7.67;7.00;5.00
60058;PMS7003;45932;50.658;3.022;2022-08-14T08:32:38;6.00;6.00;5.67
60058;PMS7003;45932;50.658;3.022;2022-08-14T08:35:08;8.00;7.00;6.00
60058;PMS7003;45932;50.658;3.022;2022-08-14T08:37:34;6.33;6.33;6.00
60058;PMS7003;45932;50.658;3.022;2022-08-14T08:40:00;5.67;5.00;5.00
60058;PMS7003;45932;50.658;3.022;2022-08-14T08:42:25;6.67;6.33;6.00
60058;PMS7003;45932;50.658;3.022;2022-08-14T08:44:54;7.33;6.33;5.33
60058;PMS7003;45932;50.658;3.022;2022-08-14T08:47:19;8.00;8.00;6.33
60058;PMS7003;45932;50.658;3.022;2022-08-14T08:49:45;8.00;8.00;5.33
60058;PMS7003;45932;50.658;3.022;2022-08-14T08:52:10;6.00;6.00;5.00
60058;PMS7003;45932;50.658;3.022;2022-08-14T08:54:37;5.67;5.67;5.00
60058;PMS7003;45932;50.658;3.022;2022-08-14T08:57:08;7.00;7.00;5.00
60058;PMS7003;45932;50.658;3.022;2022-08-14T08:59:36;8.00;7.00;5.00
60058;PMS7003;45932;50.658;3.022;2022-08-14T09:02:02;6.00;6.00;5.67
60058;PMS7003;45932;50.658;3.022;2022-08-14T09:04:34;6.00;6.00;5.00
60058;PMS7003;45932;50.658;3.022;2022-08-14T09:07:02;6.00;5.00;5.00
60058;PMS7003;45932;50.658;3.022;2022-08-14T09:09:29;6.00;6.00;5.00
60058;PMS7003;45932;50.658;3.022;2022-08-14T09:11:58;6.33;6.33;5.00
60058;PMS7003;45932;50.658;3.022;2022-08-14T09:14:25;8.67;8.67;6.00
60058;PMS7003;45932;50.658;3.022;2022-08-14T09:16:53;6.00;6.00;5.67
60058;PMS7003;45932;50.658;3.022;2022-08-14T09:19:20;6.00;6.00;5.00
60058;PMS7003;45932;50.658;3.022;2022-08-14T09:21:45;6.67;6.67;6.00
60058;PMS7003;45932;50.658;3.022;2022-08-14T09:24:11;7.00;7.00;6.00
60058;PMS7003;45932;50.658;3.022;2022-08-14T09:26:37;5.33;5.33;5.00
60058;PMS7003;45932;50.658;3.022;2022-08-14T09:29:04;8.33;8.33;6.67
60058;PMS7003;45932;50.658;3.022;2022-08-14T09:31:29;6.33;6.33;5.33
60058;PMS7003;45932;50.658;3.022;2022-08-14T09:37:26;6.00;6.00;5.00
60058;PMS7003;45932;50.658;3.022;2022-08-14T09:40:03;9.33;9.33;6.67
60058;PMS7003;45932;50.658;3.022;2022-08-14T09:42:41;8.00;6.33;6.00
60058;PMS7003;45932;50.658;3.022;2022-08-14T09:45:18;7.00;7.00;6.00
60058;PMS7003;45932;50.658;3.022;2022-08-14T09:47:55;8.00;8.00;6.00
60058;PMS7003;45932;50.658;3.022;2022-08-14T09:50:31;7.00;7.00;5.33
60058;PMS7003;45932;50.658;3.022;2022-08-14T09:53:09;7.67;7.67;6.00
60058;PMS7003;45932;50.658;3.022;2022-08-14T09:55:36;8.00;7.67;7.00
60058;PMS7003;45932;50.658;3.022;2022-08-14T10:00:49;5.67;5.67;5.00
60058;PMS7003;45932;50.658;3.022;2022-08-14T10:03:25;6.00;6.00;5.00
60058;PMS7003;45932;50.658;3.022;2022-08-14T10:06:02;7.00;7.00;6.33
60058;PMS7003;45932;50.658;3.022;2022-08-14T10:08:51;8.00;8.00;6.00
60058;PMS7003;45932;50.658;3.022;2022-08-14T10:11:23;6.33;6.33;5.67
60058;PMS7003;45932;50.658;3.022;2022-08-14T10:13:53;8.00;7.00;6.00
60058;PMS7003;45932;50.658;3.022;2022-08-14T10:16:22;9.00;9.00;7.00
60058;PMS7003;45932;50.658;3.022;2022-08-14T10:19:05;6.67;6.67;6.00
60058;PMS7003;45932;50.658;3.022;2022-08-14T10:21:36;8.33;7.67;6.00
60058;PMS7003;45932;50.658;3.022;2022-08-14T10:24:03;7.33;7.00;6.33
60058;PMS7003;45932;50.658;3.022;2022-08-14T10:26:33;7.00;7.00;6.67
60058;PMS7003;45932;50.658;3.022;2022-08-14T10:29:09;7.67;7.00;6.00
60058;PMS7003;45932;50.658;3.022;2022-08-14T10:31:36;9.67;7.67;6.33
60058;PMS7003;45932;50.658;3.022;2022-08-14T10:36:30;7.67;7.67;6.00
60058;PMS7003;45932;50.658;3.022;2022-08-14T10:39:02;6.00;6.00;5.00
60058;PMS7003;45932;50.658;3.022;2022-08-14T10:41:34;6.00;6.00;6.00
60058;PMS7003;45932;50.658;3.022;2022-08-14T10:44:09;6.67;6.67;5.67
60058;PMS7003;45932;50.658;3.022;2022-08-14T10:49:05;6.33;6.33;5.33
60058;PMS7003;45932;50.658;3.022;2022-08-14T10:51:33;6.67;6.67;6.00
60058;PMS7003;45932;50.658;3.022;2022-08-14T10:54:03;8.00;7.00;6.00
60058;PMS7003;45932;50.658;3.022;2022-08-14T10:56:33;5.67;5.00;5.00
60058;PMS7003;45932;50.658;3.022;2022-08-14T10:59:03;8.33;6.00;5.67
60058;PMS7003;45932;50.658;3.022;2022-08-14T11:01:33;7.00;7.00;5.33
60058;PMS7003;45932;50.658;3.022;2022-08-14T11:04:00;9.00;8.67;7.00
60058;PMS7003;45932;50.658;3.022;2022-08-14T11:06:26;10.33;8.00;6.00
60058;PMS7003;45932;50.658;3.022;2022-08-14T11:08:52;8.67;6.67;5.33
60058;PMS7003;45932;50.658;3.022;2022-08-14T11:11:19;9.00;9.00;7.00
60058;PMS7003;45932;50.658;3.022;2022-08-14T11:13:45;6.00;6.00;5.00
60058;PMS7003;45932;50.658;3.022;2022-08-14T11:16:13;6.67;6.67;6.00
60058;PMS7003;45932;50.658;3.022;2022-08-14T11:18:42;6.00;6.00;5.00
60058;PMS7003;45932;50.658;3.022;2022-08-14T11:21:13;6.00;6.00;5.00
60058;PMS7003;45932;50.658;3.022;2022-08-14T11:23:41;9.00;8.00;6.33
60058;PMS7003;45932;50.658;3.022;2022-08-14T11:26:10;7.00;7.00;7.00
60058;PMS7003;45932;50.658;3.022;2022-08-14T11:28:37;6.00;5.67;4.67
60058;PMS7003;45932;50.658;3.022;2022-08-14T11:31:04;4.67;4.67;4.00
60058;PMS7003;45932;50.658;3.022;2022-08-14T11:33:34;10.00;10.00;8.00
60058;PMS7003;45932;50.658;3.022;2022-08-14T11:36:02;6.33;6.33;5.33
60058;PMS7003;45932;50.658;3.022;2022-08-14T11:38:36;7.00;7.00;6.00
60058;PMS7003;45932;50.658;3.022;2022-08-14T11:41:02;7.00;6.00;5.33
60058;PMS7003;45932;50.658;3.022;2022-08-14T11:43:29;4.67;4.67;4.00
60058;PMS7003;45932;50.658;3.022;2022-08-14T11:45:54;7.33;7.33;5.33
60058;PMS7003;45932;50.658;3.022;2022-08-14T11:48:24;6.00;6.00;6.00
60058;PMS7003;45932;50.658;3.022;2022-08-14T11:50:50;8.00;6.00;5.33
60058;PMS7003;45932;50.658;3.022;2022-08-14T11:53:24;7.33;7.33;5.67
60058;PMS7003;45932;50.658;3.022;2022-08-14T11:56:00;5.67;5.67;5.00
60058;PMS7003;45932;50.658;3.022;2022-08-14T11:58:28;7.33;7.00;6.00
60058;PMS7003;45932;50.658;3.022;2022-08-14T12:00:57;5.00;5.00;4.67
60058;PMS7003;45932;50.658;3.022;2022-08-14T12:06:11;6.00;6.00;4.00
60058;PMS7003;45932;50.658;3.022;2022-08-14T12:08:38;4.33;4.33;4.00
60058;PMS7003;45932;50.658;3.022;2022-08-14T12:11:04;4.00;4.00;4.00
60058;PMS7003;45932;50.658;3.022;2022-08-14T12:13:31;4.33;4.33;4.00
60058;PMS7003;45932;50.658;3.022;2022-08-14T12:16:01;3.00;3.00;2.00
60058;PMS7003;45932;50.658;3.022;2022-08-14T12:18:32;6.33;5.33;5.00
60058;PMS7003;45932;50.658;3.022;2022-08-14T12:23:42;5.00;5.00;5.00
60058;PMS7003;45932;50.658;3.022;2022-08-14T12:26:09;6.00;6.00;5.67
60058;PMS7003;45932;50.658;3.022;2022-08-14T12:28:41;4.67;4.33;4.00
60058;PMS7003;45932;50.658;3.022;2022-08-14T12:31:14;6.00;6.00;4.67
60058;PMS7003;45932;50.658;3.022;2022-08-14T12:33:53;6.00;6.00;4.67
60058;PMS7003;45932;50.658;3.022;2022-08-14T12:36:20;5.00;5.00;4.00
60058;PMS7003;45932;50.658;3.022;2022-08-14T12:38:46;4.33;4.33;3.67
60058;PMS7003;45932;50.658;3.022;2022-08-14T12:41:18;6.00;6.00;5.00
60058;PMS7003;45932;50.658;3.022;2022-08-14T12:43:47;5.00;5.00;4.33
60058;PMS7003;45932;50.658;3.022;2022-08-14T12:46:30;7.00;5.33;5.00
60058;PMS7003;45932;50.658;3.022;2022-08-14T12:49:07;5.00;5.00;4.00
60058;PMS7003;45932;50.658;3.022;2022-08-14T12:51:37;4.00;4.00;4.00
60058;PMS7003;45932;50.658;3.022;2022-08-14T12:54:14;5.00;5.00;4.33
60058;PMS7003;45932;50.658;3.022;2022-08-14T12:56:41;5.33;4.33;4.00
60058;PMS7003;45932;50.658;3.022;2022-08-14T12:59:07;5.00;5.00;5.00
60058;PMS7003;45932;50.658;3.022;2022-08-14T13:01:33;4.33;4.33;3.00
60058;PMS7003;45932;50.658;3.022;2022-08-14T13:04:08;5.67;5.67;5.00
60058;PMS7003;45932;50.658;3.022;2022-08-14T13:06:37;5.00;5.00;4.33
60058;PMS7003;45932;50.658;3.022;2022-08-14T13:09:05;6.00;6.00;5.33
60058;PMS7003;45932;50.658;3.022;2022-08-14T13:11:41;6.00;3.67;3.67
60058;PMS7003;45932;50.658;3.022;2022-08-14T13:14:22;5.33;5.00;4.00
60058;PMS7003;45932;50.658;3.022;2022-08-14T13:16:53;6.67;5.67;4.67
60058;PMS7003;45932;50.658;3.022;2022-08-14T13:19:25;6.00;6.00;5.00
60058;PMS7003;45932;50.658;3.022;2022-08-14T13:21:51;4.67;4.67;3.67
60058;PMS7003;45932;50.658;3.022;2022-08-14T13:24:19;6.00;5.33;5.00
60058;PMS7003;45932;50.658;3.022;2022-08-14T13:26:46;5.67;5.67;5.00
60058;PMS7003;45932;50.658;3.022;2022-08-14T13:29:15;5.33;5.33;4.67
60058;PMS7003;45932;50.658;3.022;2022-08-14T13:31:44;8.00;7.00;5.00
60058;PMS7003;45932;50.658;3.022;2022-08-14T13:34:13;4.00;4.00;4.00
60058;PMS7003;45932;50.658;3.022;2022-08-14T13:36:39;5.00;5.00;4.33
60058;PMS7003;45932;50.658;3.022;2022-08-14T13:39:05;7.00;5.33;5.00
60058;PMS7003;45932;50.658;3.022;2022-08-14T13:41:31;5.00;5.00;5.00
60058;PMS7003;45932;50.658;3.022;2022-08-14T13:43:57;4.67;4.67;3.33
60058;PMS7003;45932;50.658;3.022;2022-08-14T13:46:23;6.00;6.00;5.00
60058;PMS7003;45932;50.658;3.022;2022-08-14T13:48:52;4.00;4.00;4.00
60058;PMS7003;45932;50.658;3.022;2022-08-14T13:51:17;6.00;5.33;5.00
60058;PMS7003;45932;50.658;3.022;2022-08-14T13:53:50;6.67;6.67;5.67
60058;PMS7003;45932;50.658;3.022;2022-08-14T13:56:20;3.33;3.33;3.00
60058;PMS7003;45932;50.658;3.022;2022-08-14T13:58:50;6.00;5.00;4.67
60058;PMS7003;45932;50.658;3.022;2022-08-14T14:01:16;7.00;7.00;5.67
60058;PMS7003;45932;50.658;3.022;2022-08-14T14:03:44;5.00;5.00;4.33
60058;PMS7003;45932;50.658;3.022;2022-08-14T14:06:14;5.00;5.00;4.00
60058;PMS7003;45932;50.658;3.022;2022-08-14T14:08:45;6.00;6.00;5.00
60058;PMS7003;45932;50.658;3.022;2022-08-14T14:11:13;7.00;7.00;5.67
60058;PMS7003;45932;50.658;3.022;2022-08-14T14:13:40;6.67;5.00;4.67
60058;PMS7003;45932;50.658;3.022;2022-08-14T14:16:06;5.00;5.00;4.33
60058;PMS7003;45932;50.658;3.022;2022-08-14T14:18:33;6.33;6.00;5.00
60058;PMS7003;45932;50.658;3.022;2022-08-14T14:21:00;4.33;4.33;4.00
60058;PMS7003;45932;50.658;3.022;2022-08-14T14:23:27;5.00;5.00;4.67
60058;PMS7003;45932;50.658;3.022;2022-08-14T14:25:54;5.00;5.00;4.67
60058;PMS7003;45932;50.658;3.022;2022-08-14T14:28:20;6.00;6.00;4.00
60058;PMS7003;45932;50.658;3.022;2022-08-14T14:30:52;5.00;5.00;4.00
60058;PMS7003;45932;50.658;3.022;2022-08-14T14:33:19;4.33;4.33;3.67